Time;durP1;ratioP1;P1;durP2;ratioP2;P2;SDS_P1;SDS_P2;PMS_P1;PMS_P2;Temp;Humidity;BMP_temperature;BMP_pressure;BME280_temperature;BME280_humidity;BME280_pressure;Samples;Min_cycle;Max_cycle;Signal;HPM_P1;HPM_P2
2024/01/13 00:01:54;;;;;;;11.30;7.10;;;5.90;99.90;;;;;;5069288;28;20029;-46
2024/01/13 00:04:20;;;;;;;11.45;6.53;;;5.90;99.90;;;;;;5068265;28;20033;-49
2024/01/13 00:06:45;;;;;;;10.70;6.20;;;5.90;99.90;;;;;;5069180;28;20029;-49
2024/01/13 00:09:11;;;;;;;10.98;7.05;;;6.00;99.90;;;;;;5067908;28;20033;-50
2024/01/13 00:11:37;;;;;;;13.32;8.52;;;6.00;99.90;;;;;;5067681;28;20291;-47
2024/01/13 00:14:03;;;;;;;9.02;6.63;;;5.90;99.90;;;;;;5068661;28;20059;-46
2024/01/13 00:16:28;;;;;;;10.52;6.63;;;5.80;99.90;;;;;;5068943;28;20291;-46
2024/01/13 00:18:54;;;;;;;14.23;8.00;;;5.90;99.90;;;;;;5069097;28;20257;-47
2024/01/13 00:21:20;;;;;;;9.07;6.72;;;5.90;99.90;;;;;;5068177;28;20206;-46
2024/01/13 00:23:45;;;;;;;8.57;6.10;;;5.90;99.90;;;;;;5067547;28;20052;-46
2024/01/13 00:26:11;;;;;;;9.30;5.80;;;5.90;99.90;;;;;;5068757;28;20053;-47
2024/01/13 00:28:37;;;;;;;7.70;6.07;;;5.90;99.90;;;;;;5068396;28;20033;-48
2024/01/13 00:31:04;;;;;;;21.40;9.15;;;5.80;99.90;;;;;;5068434;28;20175;-46
2024/01/13 00:33:30;;;;;;;8.25;6.10;;;5.90;99.90;;;;;;5068676;28;20020;-46
2024/01/13 00:35:55;;;;;;;10.07;6.60;;;5.90;99.90;;;;;;5068607;28;20029;-47
2024/01/13 00:38:21;;;;;;;23.50;9.77;;;5.90;99.90;;;;;;5068602;28;20091;-47
2024/01/13 00:40:47;;;;;;;22.33;9.82;;;5.80;99.90;;;;;;5068717;28;20037;-46
2024/01/13 00:43:12;;;;;;;21.40;10.35;;;5.80;99.90;;;;;;5068179;28;20025;-47
2024/01/13 00:45:38;;;;;;;28.27;11.57;;;5.70;99.90;;;;;;5068554;28;20035;-50
2024/01/13 00:48:04;;;;;;;21.38;9.57;;;5.60;99.90;;;;;;5068343;28;20036;-49
2024/01/13 00:50:29;;;;;;;27.85;10.88;;;5.60;99.90;;;;;;5068585;28;20050;-49
2024/01/13 00:52:55;;;;;;;12.05;8.00;;;5.60;99.90;;;;;;5067325;28;20087;-50
2024/01/13 00:55:21;;;;;;;23.52;10.75;;;5.60;99.90;;;;;;5067741;28;20044;-49
2024/01/13 00:57:46;;;;;;;10.50;7.97;;;5.60;99.90;;;;;;5067522;28;20100;-49
2024/01/13 01:00:12;;;;;;;21.40;10.43;;;5.60;99.90;;;;;;5067804;28;20021;-50
2024/01/13 01:02:38;;;;;;;18.35;9.45;;;5.60;99.90;;;;;;5068295;28;20035;-49
2024/01/13 01:05:04;;;;;;;18.50;9.13;;;5.70;99.90;;;;;;5067225;28;20088;-50
2024/01/13 01:07:30;;;;;;;15.13;9.15;;;5.80;99.90;;;;;;5067044;28;20314;-50
2024/01/13 01:09:55;;;;;;;13.40;8.75;;;5.90;99.90;;;;;;5067913;28;20028;-50
2024/01/13 01:12:21;;;;;;;13.80;9.82;;;5.90;99.90;;;;;;5066923;28;20087;-47
2024/01/13 01:14:47;;;;;;;13.15;9.23;;;6.00;99.90;;;;;;5067741;28;20049;-46
2024/01/13 01:17:13;;;;;;;14.05;9.38;;;6.00;99.90;;;;;;5067540;28;20044;-46
2024/01/13 01:19:38;;;;;;;17.33;10.70;;;6.00;99.90;;;;;;5067849;28;20028;-47
2024/01/13 01:22:04;;;;;;;19.92;11.70;;;6.00;99.90;;;;;;5067847;28;20048;-46
2024/01/13 01:24:30;;;;;;;17.48;10.93;;;6.00;99.90;;;;;;5067779;28;20041;-45
2024/01/13 01:26:56;;;;;;;26.40;14.20;;;5.90;99.90;;;;;;5067752;28;20167;-46
2024/01/13 01:29:21;;;;;;;18.00;10.50;;;6.00;99.90;;;;;;5067506;28;20036;-47
2024/01/13 01:31:47;;;;;;;14.93;9.57;;;5.90;99.90;;;;;;5067269;28;20037;-47
2024/01/13 01:34:12;;;;;;;14.18;9.70;;;5.90;99.90;;;;;;5066532;28;20029;-49
2024/01/13 01:36:38;;;;;;;20.23;10.85;;;5.90;99.90;;;;;;5067631;28;20025;-49
2024/01/13 01:39:04;;;;;;;20.02;10.57;;;5.80;99.90;;;;;;5066489;28;20025;-48
2024/01/13 01:41:29;;;;;;;14.82;9.80;;;5.80;99.90;;;;;;5067605;28;20028;-50
2024/01/13 01:43:55;;;;;;;17.15;10.23;;;5.80;99.90;;;;;;5066347;28;20036;-48
2024/01/13 01:46:21;;;;;;;15.32;9.50;;;5.80;99.90;;;;;;5067420;28;20055;-48
2024/01/13 01:48:46;;;;;;;13.55;8.55;;;5.70;99.90;;;;;;5066981;28;20053;-46
2024/01/13 01:51:16;;;;;;;12.32;8.00;;;5.70;99.90;;;;;;5066978;28;20029;-48
2024/01/13 01:53:43;;;;;;;13.25;8.48;;;5.70;99.90;;;;;;5067248;28;20056;-49
2024/01/13 01:56:12;;;;;;;17.10;10.40;;;5.80;99.90;;;;;;5049488;28;20179;-46
2024/01/13 01:58:37;;;;;;;14.55;9.10;;;5.70;99.90;;;;;;5066316;28;20025;-46
2024/01/13 02:01:03;;;;;;;12.68;8.35;;;5.60;99.90;;;;;;5067056;28;20071;-47
2024/01/13 02:03:29;;;;;;;13.13;8.05;;;5.50;99.90;;;;;;5065874;28;20036;-48
2024/01/13 02:05:55;;;;;;;12.00;8.18;;;5.50;99.90;;;;;;5066536;28;20090;-47
2024/01/13 02:08:21;;;;;;;12.45;7.97;;;5.50;99.90;;;;;;5065895;28;20349;-47
2024/01/13 02:10:46;;;;;;;12.82;8.30;;;5.40;99.90;;;;;;5066035;28;20088;-47
2024/01/13 02:13:12;;;;;;;11.50;7.80;;;5.40;99.90;;;;;;5066511;28;20105;-46
2024/01/13 02:15:37;;;;;;;14.32;8.73;;;5.40;99.90;;;;;;5066368;28;20048;-46
2024/01/13 02:18:03;;;;;;;12.00;8.73;;;5.40;99.90;;;;;;5066636;28;20036;-46
2024/01/13 02:20:29;;;;;;;12.48;8.93;;;5.40;99.90;;;;;;5066717;28;20027;-46
2024/01/13 02:22:54;;;;;;;14.70;9.15;;;5.40;99.90;;;;;;5066694;28;20037;-45
2024/01/13 02:25:20;;;;;;;14.98;8.70;;;5.40;99.90;;;;;;5066353;28;20020;-47
2024/01/13 02:27:46;;;;;;;12.73;8.43;;;5.40;99.90;;;;;;5065791;28;20040;-46
2024/01/13 02:30:12;;;;;;;18.08;10.65;;;5.40;99.90;;;;;;5066539;28;20321;-47
2024/01/13 02:32:37;;;;;;;17.52;10.68;;;5.30;99.90;;;;;;5066608;28;20245;-47
2024/01/13 02:35:03;;;;;;;15.27;9.90;;;5.40;99.90;;;;;;5065185;28;20306;-49
2024/01/13 02:37:29;;;;;;;18.25;11.05;;;5.40;99.90;;;;;;5065234;28;20056;-49
2024/01/13 02:39:55;;;;;;;15.63;10.23;;;5.40;99.90;;;;;;5066494;28;20205;-49
2024/01/13 02:42:20;;;;;;;17.40;9.88;;;5.50;99.90;;;;;;5066270;28;20305;-49
2024/01/13 02:44:46;;;;;;;15.43;9.73;;;5.50;99.90;;;;;;5066393;28;20037;-48
2024/01/13 02:47:11;;;;;;;14.70;9.77;;;5.60;99.90;;;;;;5066323;28;20087;-49
2024/01/13 02:49:37;;;;;;;14.95;10.02;;;5.70;99.90;;;;;;5066323;28;20036;-46
2024/01/13 02:52:03;;;;;;;16.70;9.80;;;5.70;99.90;;;;;;5066063;28;20100;-47
2024/01/13 02:54:29;;;;;;;14.23;9.80;;;5.70;99.90;;;;;;5066219;28;20024;-49
2024/01/13 02:56:54;;;;;;;14.50;9.57;;;5.70;99.90;;;;;;5066015;28;20056;-48
2024/01/13 02:59:20;;;;;;;14.73;9.77;;;5.70;99.90;;;;;;5065930;28;20033;-46
2024/01/13 03:01:46;;;;;;;14.77;9.80;;;5.80;99.90;;;;;;5065772;28;20086;-47
2024/01/13 03:04:11;;;;;;;14.43;9.55;;;5.80;99.90;;;;;;5065894;28;20148;-47
2024/01/13 03:06:37;;;;;;;13.35;9.15;;;5.90;99.90;;;;;;5065538;28;20341;-50
2024/01/13 03:09:03;;;;;;;13.02;9.07;;;5.90;99.90;;;;;;5066027;28;20025;-49
2024/01/13 03:11:28;;;;;;;16.40;8.90;;;5.90;99.90;;;;;;5064990;28;20044;-49
2024/01/13 03:13:55;;;;;;;12.95;9.02;;;6.00;99.90;;;;;;5065508;28;20242;-46
2024/01/13 03:16:21;;;;;;;14.90;9.10;;;6.00;99.90;;;;;;5065609;28;20033;-46
2024/01/13 03:18:46;;;;;;;14.35;8.82;;;6.00;99.90;;;;;;5065186;28;20147;-46
2024/01/13 03:21:12;;;;;;;16.52;9.25;;;5.90;99.90;;;;;;5065585;28;20037;-46
2024/01/13 03:23:38;;;;;;;17.88;9.90;;;6.00;99.90;;;;;;5065418;28;20020;-46
2024/01/13 03:26:03;;;;;;;14.55;8.77;;;6.00;99.90;;;;;;5065460;28;20040;-46
2024/01/13 03:28:29;;;;;;;14.65;9.50;;;5.90;99.90;;;;;;5065646;28;20238;-47
2024/01/13 03:30:55;;;;;;;13.90;9.55;;;5.80;99.90;;;;;;5065605;28;20028;-49
2024/01/13 03:33:20;;;;;;;14.93;9.02;;;5.80;99.90;;;;;;5065490;28;20061;-49
2024/01/13 03:35:46;;;;;;;15.23;9.40;;;5.80;99.90;;;;;;5065460;28;20191;-49
2024/01/13 03:38:12;;;;;;;14.23;9.55;;;5.70;99.90;;;;;;5065154;28;20298;-50
2024/01/13 03:40:37;;;;;;;15.32;8.98;;;5.80;99.90;;;;;;5065509;28;20153;-49
2024/01/13 03:43:03;;;;;;;15.15;8.90;;;5.70;99.90;;;;;;5065473;28;20029;-49
2024/01/13 03:45:29;;;;;;;15.05;9.25;;;5.70;99.90;;;;;;5064365;28;20106;-46
2024/01/13 03:47:54;;;;;;;18.73;9.65;;;5.80;99.90;;;;;;5065218;28;20033;-50
2024/01/13 03:50:20;;;;;;;16.35;9.27;;;5.90;99.90;;;;;;5065349;28;20040;-49
2024/01/13 03:52:46;;;;;;;13.35;8.45;;;5.90;99.90;;;;;;5064362;28;20090;-48
2024/01/13 03:55:13;;;;;;;13.63;9.07;;;6.00;99.90;;;;;;5065436;28;20040;-46
2024/01/13 03:57:39;;;;;;;15.63;8.90;;;6.00;99.90;;;;;;5064358;28;20032;-48
2024/01/13 04:00:06;;;;;;;16.02;9.85;;;6.10;99.90;;;;;;5065262;28;20025;-50
2024/01/13 04:02:32;;;;;;;13.73;8.15;;;6.10;99.90;;;;;;5065269;28;20300;-48
2024/01/13 04:04:57;;;;;;;14.85;9.52;;;6.10;99.90;;;;;;5065269;28;20060;-49
2024/01/13 04:07:23;;;;;;;14.70;9.25;;;6.00;99.90;;;;;;5065168;28;20040;-50
2024/01/13 04:09:50;;;;;;;16.50;9.95;;;5.90;99.90;;;;;;5064831;28;20032;-50
2024/01/13 04:12:15;;;;;;;15.95;9.68;;;5.90;99.90;;;;;;5065158;28;20032;-50
2024/01/13 04:14:41;;;;;;;13.27;8.90;;;5.90;99.90;;;;;;5064832;28;20045;-49
2024/01/13 04:17:07;;;;;;;14.63;9.25;;;5.90;99.90;;;;;;5065147;28;20064;-50
2024/01/13 04:19:32;;;;;;;15.93;8.55;;;5.90;99.90;;;;;;5064853;28;20056;-49
2024/01/13 04:21:58;;;;;;;12.88;8.57;;;5.90;99.90;;;;;;5065229;28;20024;-50
2024/01/13 04:24:24;;;;;;;15.90;9.55;;;5.90;99.90;;;;;;5065085;28;20025;-50
2024/01/13 04:26:49;;;;;;;16.42;9.50;;;6.00;99.90;;;;;;5065131;28;20047;-49
2024/01/13 04:29:15;;;;;;;13.68;8.93;;;6.10;99.90;;;;;;5065155;28;20033;-49
2024/01/13 04:31:41;;;;;;;14.18;8.70;;;6.10;99.90;;;;;;5067999;28;20033;-50
2024/01/13 04:34:06;;;;;;;15.43;8.88;;;6.10;99.90;;;;;;5068883;28;20175;-49
2024/01/13 04:36:32;;;;;;;14.27;8.38;;;6.10;99.90;;;;;;5068640;28;20031;-49
2024/01/13 04:38:57;;;;;;;13.25;8.60;;;6.10;99.90;;;;;;5068731;28;20029;-46
2024/01/13 04:41:23;;;;;;;12.90;8.20;;;6.10;99.90;;;;;;5068385;28;20036;-47
2024/01/13 04:43:49;;;;;;;13.43;8.20;;;6.10;99.90;;;;;;5068193;28;20070;-46
2024/01/13 04:46:15;;;;;;;14.43;8.52;;;6.20;99.90;;;;;;5068456;28;20028;-46
2024/01/13 04:48:41;;;;;;;14.32;8.48;;;6.10;99.90;;;;;;5068564;28;20040;-45
2024/01/13 04:51:06;;;;;;;15.23;8.43;;;6.20;99.90;;;;;;5068520;28;20096;-47
2024/01/13 04:53:32;;;;;;;12.80;8.20;;;6.20;99.90;;;;;;5068580;28;20348;-47
2024/01/13 04:55:58;;;;;;;12.27;8.02;;;6.20;99.90;;;;;;5068478;28;20056;-46
2024/01/13 04:58:23;;;;;;;12.40;7.78;;;6.30;99.90;;;;;;5068227;28;20342;-49
2024/01/13 05:00:49;;;;;;;14.43;8.52;;;6.30;99.90;;;;;;5067161;28;20040;-47
2024/01/13 05:03:14;;;;;;;14.02;8.20;;;6.30;99.90;;;;;;5068091;28;20048;-49
2024/01/13 05:05:40;;;;;;;11.15;7.35;;;6.30;99.90;;;;;;5068116;28;20084;-49
2024/01/13 05:08:06;;;;;;;13.82;8.65;;;6.30;99.90;;;;;;5067970;28;20025;-50
2024/01/13 05:10:31;;;;;;;14.02;7.80;;;6.20;99.90;;;;;;5068097;28;20053;-49
2024/01/13 05:12:57;;;;;;;12.77;8.07;;;6.20;99.90;;;;;;5067507;28;20035;-49
2024/01/13 05:15:23;;;;;;;14.20;7.70;;;6.30;99.90;;;;;;5067635;28;20045;-49
2024/01/13 05:17:49;;;;;;;14.38;8.93;;;6.30;99.90;;;;;;5067695;28;20100;-49
2024/01/13 05:20:15;;;;;;;15.40;9.55;;;6.20;99.90;;;;;;5067845;28;20227;-49
2024/01/13 05:22:40;;;;;;;14.15;8.90;;;6.10;99.90;;;;;;5066849;28;20029;-50
2024/01/13 05:25:07;;;;;;;15.25;9.05;;;5.90;99.90;;;;;;5067894;28;20032;-50
2024/01/13 05:27:33;;;;;;;15.48;8.88;;;5.80;99.90;;;;;;5067705;28;20032;-48
2024/01/13 05:29:59;;;;;;;17.15;9.65;;;5.80;99.90;;;;;;5066521;28;20029;-50
2024/01/13 05:32:24;;;;;;;17.50;9.32;;;5.80;99.90;;;;;;5066493;28;20044;-49
2024/01/13 05:34:50;;;;;;;17.05;9.52;;;5.70;99.90;;;;;;5067620;28;20063;-49
2024/01/13 05:37:16;;;;;;;14.82;8.98;;;5.70;99.90;;;;;;5067145;28;20051;-50
2024/01/13 05:39:41;;;;;;;17.63;9.88;;;5.70;99.90;;;;;;5067476;28;20064;-46
2024/01/13 05:42:08;;;;;;;15.80;9.25;;;5.70;99.90;;;;;;5066783;28;20025;-49
2024/01/13 05:44:34;;;;;;;16.77;10.05;;;5.70;99.90;;;;;;5067612;28;20090;-48
2024/01/13 05:46:59;;;;;;;18.45;10.38;;;5.70;99.90;;;;;;5066940;28;20199;-49
2024/01/13 05:49:25;;;;;;;17.15;9.27;;;5.80;99.90;;;;;;5067096;28;20140;-47
2024/01/13 05:51:51;;;;;;;17.65;9.82;;;5.70;99.90;;;;;;5067160;28;20033;-50
2024/01/13 05:54:16;;;;;;;16.30;9.65;;;5.70;99.90;;;;;;5067167;28;20306;-49
2024/01/13 05:56:42;;;;;;;16.25;9.60;;;5.80;99.90;;;;;;5067079;28;20029;-50
2024/01/13 05:59:08;;;;;;;19.67;9.80;;;5.80;99.90;;;;;;5066149;28;20033;-47
2024/01/13 06:01:33;;;;;;;19.77;10.95;;;5.80;99.90;;;;;;5066886;28;20303;-47
2024/01/13 06:03:59;;;;;;;19.48;9.95;;;5.90;99.90;;;;;;5066974;28;20028;-47
2024/01/13 06:06:25;;;;;;;15.32;9.77;;;5.90;99.90;;;;;;5067119;28;20115;-46
2024/01/13 06:08:50;;;;;;;13.90;8.52;;;5.80;99.90;;;;;;5066946;28;20036;-46
2024/01/13 06:11:16;;;;;;;16.45;9.55;;;5.80;99.90;;;;;;5066604;28;20052;-49
2024/01/13 06:13:42;;;;;;;17.50;9.65;;;5.80;99.90;;;;;;5066668;28;20029;-47
2024/01/13 06:16:08;;;;;;;17.10;9.60;;;5.80;99.90;;;;;;5066730;28;20194;-46
2024/01/13 06:18:34;;;;;;;18.70;10.18;;;5.80;99.90;;;;;;5066579;28;20087;-46
2024/01/13 06:21:01;;;;;;;16.13;9.48;;;5.70;99.90;;;;;;5065650;28;20294;-47
2024/01/13 06:23:26;;;;;;;15.10;9.05;;;5.70;99.90;;;;;;5066584;28;20179;-49
2024/01/13 06:25:52;;;;;;;16.88;10.02;;;5.60;99.90;;;;;;5066602;28;20028;-49
2024/01/13 06:28:18;;;;;;;20.33;10.85;;;5.60;99.90;;;;;;5066598;28;20325;-49
2024/01/13 06:30:44;;;;;;;18.83;10.68;;;5.70;99.90;;;;;;5066595;28;20190;-48
2024/01/13 06:33:09;;;;;;;19.52;10.68;;;5.70;99.90;;;;;;5066502;28;20032;-49
2024/01/13 06:35:35;;;;;;;17.25;10.43;;;5.60;99.90;;;;;;5066353;28;20044;-50
2024/01/13 06:38:00;;;;;;;19.92;10.40;;;5.60;99.90;;;;;;5066167;28;20037;-50
2024/01/13 06:40:26;;;;;;;19.55;10.18;;;5.50;99.90;;;;;;5066391;28;20017;-50
2024/01/13 06:42:52;;;;;;;17.60;9.48;;;5.50;99.90;;;;;;5065265;28;20138;-46
2024/01/13 06:45:17;;;;;;;17.73;10.38;;;5.50;99.90;;;;;;5065092;28;20032;-50
2024/01/13 06:47:43;;;;;;;17.17;9.63;;;5.60;99.90;;;;;;5065870;28;20080;-49
2024/01/13 06:50:09;;;;;;;16.80;10.48;;;5.60;99.90;;;;;;5064961;28;20036;-50
2024/01/13 06:52:34;;;;;;;20.02;11.65;;;5.50;99.90;;;;;;5048591;28;20044;-50
2024/01/13 06:55:01;;;;;;;19.48;10.68;;;5.60;99.90;;;;;;5065291;28;20170;-50
2024/01/13 06:57:27;;;;;;;22.58;12.23;;;5.60;99.90;;;;;;5065934;28;20040;-49
2024/01/13 06:59:53;;;;;;;24.65;12.68;;;5.60;99.90;;;;;;5066010;28;20029;-50
2024/01/13 07:02:18;;;;;;;17.85;11.15;;;5.50;99.90;;;;;;5066013;28;20333;-49
2024/01/13 07:04:45;;;;;;;19.77;10.60;;;5.50;99.90;;;;;;5066059;28;20037;-49
2024/01/13 07:07:11;;;;;;;19.15;11.43;;;5.50;99.90;;;;;;5065483;28;20037;-49
2024/01/13 07:09:37;;;;;;;53.72;22.52;;;5.50;99.90;;;;;;5064947;28;20234;-49
2024/01/13 07:12:02;;;;;;;34.40;16.25;;;5.50;99.90;;;;;;5065886;28;20028;-49
2024/01/13 07:14:30;;;;;;;34.13;15.68;;;5.50;99.90;;;;;;5065539;28;20060;-49
2024/01/13 07:16:56;;;;;;;88.30;33.35;;;5.60;99.90;;;;;;5064662;28;20036;-50
2024/01/13 07:19:22;;;;;;;53.63;21.50;;;5.50;99.90;;;;;;5065712;28;20249;-49
2024/01/13 07:21:47;;;;;;;43.10;22.80;;;5.60;99.90;;;;;;5064516;28;20028;-50
2024/01/13 07:24:13;;;;;;;27.05;15.52;;;5.50;99.90;;;;;;5064812;28;20139;-46
2024/01/13 07:26:39;;;;;;;21.08;11.88;;;5.60;99.90;;;;;;5065620;28;20043;-46
2024/01/13 07:29:05;;;;;;;20.17;10.85;;;5.60;99.90;;;;;;5065682;28;20163;-47
2024/01/13 07:31:31;;;;;;;25.50;14.75;;;5.60;99.90;;;;;;5065364;28;20025;-50
2024/01/13 07:33:56;;;;;;;24.40;16.17;;;5.60;99.90;;;;;;5065591;28;20037;-49
2024/01/13 07:36:22;;;;;;;21.77;14.88;;;5.50;99.90;;;;;;5065395;28;20056;-49
2024/01/13 07:38:48;;;;;;;18.17;10.57;;;5.60;99.90;;;;;;5065489;28;20346;-48
2024/01/13 07:41:13;;;;;;;18.42;10.55;;;5.60;99.90;;;;;;5064184;28;20044;-47
2024/01/13 07:43:39;;;;;;;20.00;11.27;;;5.60;99.90;;;;;;5065361;28;20041;-46
2024/01/13 07:46:05;;;;;;;19.33;11.23;;;5.70;99.90;;;;;;5064180;28;20071;-46
2024/01/13 07:48:30;;;;;;;18.00;10.25;;;5.70;99.90;;;;;;5065369;28;20029;-47
2024/01/13 07:50:56;;;;;;;21.05;13.77;;;5.80;99.90;;;;;;5065371;28;20080;-46
2024/01/13 07:53:22;;;;;;;18.63;10.90;;;5.70;99.90;;;;;;5064217;28;20104;-50
2024/01/13 07:55:47;;;;;;;15.40;9.20;;;5.60;99.90;;;;;;5065057;28;20033;-50
2024/01/13 07:58:13;;;;;;;16.67;9.02;;;5.60;99.90;;;;;;5065151;28;20195;-49
2024/01/13 08:00:39;;;;;;;17.08;9.88;;;5.60;99.90;;;;;;5065280;28;20028;-50
2024/01/13 08:03:04;;;;;;;21.42;10.38;;;5.70;99.90;;;;;;5065226;28;20084;-47
2024/01/13 08:05:33;;;;;;;19.75;10.90;;;5.70;99.90;;;;;;5065913;28;20314;-46
2024/01/13 08:08:01;;;;;;;17.47;10.03;;;5.70;99.90;;;;;;5069236;28;20096;-49
2024/01/13 08:10:27;;;;;;;17.02;9.55;;;5.70;99.90;;;;;;5068880;28;20294;-47
2024/01/13 08:12:52;;;;;;;15.65;8.90;;;5.60;99.90;;;;;;5068986;28;20094;-48
2024/01/13 08:15:18;;;;;;;18.05;10.10;;;5.60;99.90;;;;;;5068665;28;20052;-49
2024/01/13 08:17:44;;;;;;;18.10;10.52;;;5.60;99.90;;;;;;5067829;28;20040;-49
2024/01/13 08:20:10;;;;;;;17.45;9.75;;;5.70;99.90;;;;;;5068954;28;20097;-49
2024/01/13 08:22:36;;;;;;;19.77;11.82;;;5.80;99.90;;;;;;5068963;28;20024;-49
2024/01/13 08:25:02;;;;;;;18.63;11.07;;;5.80;99.90;;;;;;5068379;28;20025;-49
2024/01/13 08:27:27;;;;;;;19.17;10.63;;;5.80;99.90;;;;;;5067714;28;20032;-49
2024/01/13 08:29:53;;;;;;;19.02;9.73;;;5.90;99.90;;;;;;5068547;28;20035;-46
2024/01/13 08:32:19;;;;;;;16.27;9.23;;;5.90;99.90;;;;;;5068630;28;20110;-48
2024/01/13 08:34:44;;;;;;;19.48;9.95;;;5.90;99.90;;;;;;5068656;28;20041;-47
2024/01/13 08:37:10;;;;;;;19.83;9.68;;;5.90;99.90;;;;;;5068582;28;20052;-49
2024/01/13 08:39:35;;;;;;;16.67;8.95;;;5.90;99.90;;;;;;5068299;28;20025;-49
2024/01/13 08:42:01;;;;;;;16.45;8.52;;;5.90;99.90;;;;;;5067989;28;20037;-46
2024/01/13 08:44:27;;;;;;;16.58;8.52;;;5.80;99.90;;;;;;5067278;28;20028;-46
2024/01/13 08:46:53;;;;;;;15.48;8.65;;;5.90;99.90;;;;;;5067200;28;20078;-45
2024/01/13 08:49:18;;;;;;;17.75;9.93;;;5.90;99.90;;;;;;5068465;28;20037;-46
2024/01/13 08:51:44;;;;;;;17.13;9.38;;;5.80;99.90;;;;;;5067965;28;20032;-45
2024/01/13 08:54:10;;;;;;;17.45;9.65;;;5.70;99.90;;;;;;5067126;28;20048;-45
2024/01/13 08:56:36;;;;;;;21.58;10.82;;;5.60;99.90;;;;;;5066746;28;20048;-45
2024/01/13 08:59:02;;;;;;;18.80;10.00;;;5.60;99.90;;;;;;5067698;28;20264;-45
2024/01/13 09:01:28;;;;;;;17.77;10.15;;;5.60;99.90;;;;;;5067473;28;20071;-45
2024/01/13 09:03:53;;;;;;;20.65;11.27;;;5.60;99.90;;;;;;5066405;28;20033;-49
2024/01/13 09:06:19;;;;;;;21.10;10.40;;;5.60;99.90;;;;;;5067610;28;20052;-49
2024/01/13 09:08:44;;;;;;;21.75;11.73;;;5.60;99.90;;;;;;5067803;28;20088;-47
2024/01/13 09:11:10;;;;;;;21.30;12.75;;;5.60;99.90;;;;;;5067861;28;20210;-46
2024/01/13 09:13:36;;;;;;;21.17;10.95;;;5.60;99.90;;;;;;5049791;28;20013;-46
2024/01/13 09:16:02;;;;;;;18.42;10.07;;;5.60;99.90;;;;;;5067387;28;20075;-47
2024/01/13 09:18:28;;;;;;;18.52;10.35;;;5.50;99.90;;;;;;5066651;28;20059;-49
2024/01/13 09:20:53;;;;;;;20.38;11.05;;;5.50;99.90;;;;;;5067410;28;20278;-49
2024/01/13 09:23:19;;;;;;;17.42;10.23;;;5.60;99.90;;;;;;5067486;28;20056;-47
2024/01/13 09:25:45;;;;;;;17.10;9.75;;;5.60;99.90;;;;;;5067356;28;20063;-49
2024/01/13 09:28:10;;;;;;;21.08;11.77;;;5.70;99.90;;;;;;5067036;28;20020;-47
2024/01/13 09:30:36;;;;;;;19.58;10.63;;;5.80;99.90;;;;;;5067547;28;20025;-49
2024/01/13 09:33:04;;;;;;;20.65;12.35;;;5.80;99.90;;;;;;5066449;28;20037;-46
2024/01/13 09:35:31;;;;;;;20.95;11.38;;;5.90;99.90;;;;;;5050350;28;20036;-48
2024/01/13 09:37:58;;;;;;;20.15;11.35;;;6.00;99.90;;;;;;5067026;28;20041;-47
2024/01/13 09:40:23;;;;;;;19.85;11.65;;;6.00;99.90;;;;;;5067263;28;20037;-50
2024/01/13 09:43:09;;;;;;;19.58;11.70;;;6.00;99.90;;;;;;5067244;28;20017;-48
2024/01/13 09:45:35;;;;;;;24.08;12.73;;;6.10;99.90;;;;;;5065868;28;20294;-48
2024/01/13 09:48:01;;;;;;;37.03;18.85;;;6.10;99.90;;;;;;5065928;28;20032;-47
2024/01/13 09:50:26;;;;;;;18.02;11.10;;;6.20;99.90;;;;;;5066909;28;20033;-48
2024/01/13 09:52:52;;;;;;;18.02;10.40;;;6.10;99.90;;;;;;5067004;28;20041;-48
2024/01/13 09:55:18;;;;;;;18.38;10.13;;;6.10;99.90;;;;;;5066151;28;20231;-49
2024/01/13 09:57:44;;;;;;;20.05;10.70;;;6.10;99.90;;;;;;5065903;28;20096;-48
2024/01/13 10:00:10;;;;;;;16.92;9.40;;;6.10;99.90;;;;;;5066606;28;20052;-49
2024/01/13 10:02:36;;;;;;;15.98;9.65;;;6.10;99.90;;;;;;5066782;28;20301;-46
2024/01/13 10:05:02;;;;;;;20.40;10.93;;;6.10;99.90;;;;;;5065711;28;20025;-46
2024/01/13 10:07:28;;;;;;;19.65;10.27;;;6.20;99.90;;;;;;5065725;28;20286;-46
2024/01/13 10:09:54;;;;;;;16.92;10.30;;;6.30;99.90;;;;;;5066388;28;20044;-46
2024/01/13 10:12:20;;;;;;;18.40;10.40;;;6.30;99.90;;;;;;5066633;28;20033;-46
2024/01/13 10:14:46;;;;;;;18.58;11.18;;;6.30;99.90;;;;;;5065183;28;20104;-47
2024/01/13 10:17:12;;;;;;;18.25;9.82;;;6.40;99.90;;;;;;5065942;28;20056;-46
2024/01/13 10:19:38;;;;;;;18.52;10.52;;;6.40;99.90;;;;;;5065399;28;20036;-46
2024/01/13 10:22:05;;;;;;;18.95;9.38;;;6.30;99.90;;;;;;5066197;28;20035;-46
2024/01/13 10:24:31;;;;;;;15.93;8.63;;;6.30;99.90;;;;;;5066296;28;20028;-46
2024/01/13 10:26:57;;;;;;;16.55;8.63;;;6.40;99.90;;;;;;5065306;28;20037;-46
2024/01/13 10:29:23;;;;;;;14.82;8.70;;;6.40;99.90;;;;;;5065658;28;20351;-46
2024/01/13 10:31:50;;;;;;;15.50;8.63;;;6.50;99.90;;;;;;5065623;28;20059;-49
2024/01/13 10:34:18;;;;;;;15.85;8.57;;;6.50;99.90;;;;;;5065795;28;20313;-48
2024/01/13 10:36:44;;;;;;;22.88;11.52;;;6.50;99.90;;;;;;5066075;28;20036;-47
2024/01/13 10:39:10;;;;;;;17.83;9.65;;;6.40;99.90;;;;;;5064937;28;20071;-49
2024/01/13 10:41:35;;;;;;;19.60;9.85;;;6.50;99.90;;;;;;5065725;28;20021;-49
2024/01/13 10:44:07;;;;;;;27.00;15.73;;;6.50;99.90;;;;;;5064765;28;20180;-48
2024/01/13 10:46:33;;;;;;;20.85;12.10;;;6.60;99.90;;;;;;5065517;28;20032;-50
2024/01/13 10:49:23;;;;;;;91.57;48.60;;;6.70;99.90;;;;;;5064306;28;20279;-47
2024/01/13 10:51:52;;;;;;;22.10;11.73;;;6.70;99.90;;;;;;5064867;28;20103;-49
2024/01/13 10:54:18;;;;;;;17.80;9.55;;;6.70;99.90;;;;;;5048093;28;20096;-49
2024/01/13 10:56:44;;;;;;;21.35;11.13;;;6.70;99.90;;;;;;5064568;28;20029;-47
2024/01/13 10:59:09;;;;;;;23.65;11.95;;;6.70;99.90;;;;;;5065678;28;20037;-49
2024/01/13 11:01:35;;;;;;;36.75;21.50;;;6.70;99.90;;;;;;5064378;28;20025;-48
2024/01/13 11:04:03;;;;;;;20.50;11.90;;;6.60;99.90;;;;;;5065322;28;20073;-49
2024/01/13 11:06:29;;;;;;;32.60;15.65;;;6.60;99.90;;;;;;5065330;28;20048;-50
2024/01/13 11:08:54;;;;;;;35.10;17.20;;;6.70;99.90;;;;;;5047735;28;20037;-49
2024/01/13 11:11:29;;;;;;;37.00;18.77;;;6.80;99.90;;;;;;5065464;28;20074;-50
2024/01/13 11:14:06;;;;;;;16.75;9.88;;;6.90;99.90;;;;;;5064167;28;20164;-49
2024/01/13 11:16:32;;;;;;;16.73;9.90;;;7.00;99.90;;;;;;5065879;28;20301;-47
2024/01/13 11:18:58;;;;;;;12.50;7.43;;;6.90;99.90;;;;;;5047866;28;20164;-48
2024/01/13 11:21:32;;;;;;;30.88;25.48;;;6.80;99.90;;;;;;5065047;28;20032;-48
2024/01/13 11:24:01;;;;;;;13.52;7.45;;;6.90;99.90;;;;;;5064192;28;20020;-47
2024/01/13 11:26:36;;;;;;;11.43;7.25;;;6.90;99.90;;;;;;5065203;28;20079;-46
2024/01/13 11:29:02;;;;;;;11.45;6.55;;;6.90;99.90;;;;;;5065291;28;20079;-48
2024/01/13 11:31:41;;;;;;;11.07;6.45;;;6.80;99.90;;;;;;5063807;28;20287;-48
2024/01/13 11:34:07;;;;;;;14.70;8.23;;;6.80;99.90;;;;;;5064747;28;20073;-47
2024/01/13 11:36:34;;;;;;;11.32;7.03;;;6.80;99.90;;;;;;5063762;28;20037;-50
2024/01/13 11:39:00;;;;;;;12.32;7.40;;;6.80;99.90;;;;;;5063793;28;20025;-47
2024/01/13 11:41:45;;;;;;;13.45;8.18;;;6.80;99.90;;;;;;5063903;28;20036;-50
2024/01/13 11:44:11;;;;;;;12.02;7.80;;;6.90;99.90;;;;;;5063785;28;20098;-50
2024/01/13 11:46:38;;;;;;;8.88;6.13;;;6.90;99.90;;;;;;5064474;28;20282;-48
2024/01/13 11:49:07;;;;;;;11.57;7.55;;;6.90;99.90;;;;;;5047307;28;20108;-49
2024/01/13 11:51:58;;;;;;;12.33;7.87;;;6.90;99.90;;;;;;5064699;28;20105;-50
2024/01/13 11:54:25;;;;;;;10.50;6.15;;;6.90;99.90;;;;;;5065323;28;20045;-50
2024/01/13 11:56:50;;;;;;;12.13;6.47;;;6.90;99.90;;;;;;5064922;28;20229;-50
2024/01/13 11:59:16;;;;;;;9.32;5.78;;;6.90;99.90;;;;;;5064513;28;20017;-48
2024/01/13 12:01:44;;;;;;;10.45;6.38;;;6.90;99.90;;;;;;5063613;28;20278;-49
2024/01/13 12:04:10;;;;;;;12.65;6.65;;;6.90;99.90;;;;;;5064770;28;20025;-50
2024/01/13 12:06:35;;;;;;;11.63;6.25;;;6.90;99.90;;;;;;5064341;28;20035;-49
2024/01/13 12:09:01;;;;;;;10.60;6.85;;;6.90;99.90;;;;;;5064593;28;20039;-49
2024/01/13 12:11:27;;;;;;;11.15;6.15;;;6.80;99.90;;;;;;5063378;28;20206;-50
2024/01/13 12:13:53;;;;;;;11.95;6.88;;;7.00;99.90;;;;;;5063303;28;20070;-48
2024/01/13 12:16:18;;;;;;;14.60;7.80;;;7.00;99.90;;;;;;5064245;28;20072;-49
2024/01/13 12:18:47;;;;;;;10.20;6.15;;;7.00;99.90;;;;;;5064921;28;20049;-49
2024/01/13 12:21:14;;;;;;;9.77;6.47;;;7.00;99.90;;;;;;5064199;28;20029;-49
2024/01/13 12:23:42;;;;;;;11.27;6.38;;;6.90;99.90;;;;;;5064277;28;20301;-49
2024/01/13 12:26:08;;;;;;;12.02;7.95;;;6.90;99.90;;;;;;5063387;28;20344;-50
2024/01/13 12:28:34;;;;;;;11.05;6.82;;;6.90;99.90;;;;;;5064662;28;20025;-50
2024/01/13 12:31:03;;;;;;;12.68;7.32;;;6.90;99.90;;;;;;5047078;28;20033;-49
2024/01/13 12:33:30;;;;;;;10.55;5.95;;;6.90;99.90;;;;;;5064589;28;20063;-48
2024/01/13 12:35:59;;;;;;;12.52;7.00;;;6.80;99.90;;;;;;5064800;28;20058;-47
2024/01/13 12:38:28;;;;;;;12.32;6.65;;;6.90;99.90;;;;;;5064171;28;20029;-48